createdAt,value
2018-08-31T00:01:07.836Z,14.63
2018-08-31T00:06:23.452Z,16.60
2018-08-31T00:12:35.904Z,14.90
2018-08-31T00:17:40.808Z,14.00
2018-08-31T00:22:44.498Z,14.17
2018-08-31T00:29:02.658Z,14.40
2018-08-31T00:34:20.489Z,15.87
2018-08-31T00:41:42.211Z,16.00
2018-08-31T00:46:45.902Z,13.73
2018-08-31T00:51:49.533Z,16.30
2018-08-31T00:56:53.428Z,18.50
2018-08-31T01:01:57.055Z,16.50
2018-08-31T01:07:05.756Z,15.70
2018-08-31T01:12:10.107Z,16.93
2018-08-31T01:17:15.645Z,16.13
2018-08-31T01:22:19.335Z,16.20
2018-08-31T01:27:23.190Z,18.37
2018-08-31T01:32:26.869Z,18.90
2018-08-31T01:37:30.663Z,15.80
2018-08-31T01:42:34.570Z,16.03
2018-08-31T01:47:39.029Z,17.73
2018-08-31T01:52:43.199Z,18.70
2018-08-31T01:57:46.921Z,18.70
2018-08-31T02:02:52.634Z,19.20
2018-08-31T02:07:56.391Z,19.63
2018-08-31T02:13:00.159Z,17.37
2018-08-31T02:18:03.779Z,20.50
2018-08-31T02:23:08.133Z,19.57
2018-08-31T02:28:12.179Z,19.23
2018-08-31T02:33:16.503Z,19.60
2018-08-31T02:38:21.075Z,19.80
2018-08-31T02:43:24.719Z,17.23
2018-08-31T02:48:28.936Z,18.50
2018-08-31T02:53:32.658Z,17.53
2018-08-31T02:58:36.431Z,19.70
2018-08-31T03:03:40.277Z,20.63
2018-08-31T03:08:44.034Z,16.07
2018-08-31T03:13:47.826Z,17.97
2018-08-31T03:18:51.814Z,20.30
2018-08-31T03:23:55.417Z,20.23
2018-08-31T03:28:59.155Z,21.40
2018-08-31T03:34:02.815Z,17.40
2018-08-31T03:39:08.767Z,17.10
2018-08-31T03:44:12.372Z,18.50
2018-08-31T03:49:16.527Z,16.60
2018-08-31T03:54:21.317Z,17.67
2018-08-31T03:59:25.762Z,18.50
2018-08-31T04:04:29.559Z,21.20
2018-08-31T04:09:33.898Z,20.93
2018-08-31T04:14:37.829Z,21.60
2018-08-31T04:19:42.565Z,26.10
2018-08-31T04:24:46.313Z,32.30
2018-08-31T04:29:50.089Z,24.70
2018-08-31T04:34:54.098Z,24.70
2018-08-31T04:39:58.839Z,24.63
2018-08-31T04:45:03.439Z,22.03
2018-08-31T04:50:07.663Z,27.33
2018-08-31T04:55:11.456Z,26.67
2018-08-31T05:00:15.277Z,29.70
2018-08-31T05:05:19.012Z,30.47
2018-08-31T05:10:22.672Z,31.27
2018-08-31T05:15:26.466Z,31.60
2018-08-31T05:20:31.564Z,33.07
2018-08-31T05:25:35.387Z,31.53
2018-08-31T05:30:39.720Z,36.87
2018-08-31T05:35:44.204Z,35.63
2018-08-31T05:40:48.212Z,40.30
2018-08-31T05:45:51.929Z,40.23
2018-08-31T05:50:55.721Z,44.90
2018-08-31T05:55:59.513Z,36.90
2018-08-31T06:01:03.872Z,42.37
2018-08-31T06:06:07.541Z,36.87
2018-08-31T06:11:11.754Z,42.27
2018-08-31T06:16:22.531Z,44.00
2018-08-31T06:21:26.736Z,41.63
2018-08-31T06:26:30.407Z,37.47
2018-08-31T06:31:34.839Z,43.87
2018-08-31T06:36:38.518Z,39.73
2018-08-31T06:41:42.167Z,42.07
2018-08-31T06:46:46.287Z,39.73
2018-08-31T06:51:50.453Z,37.47
2018-08-31T06:56:55.298Z,37.63
2018-08-31T07:01:59.250Z,39.20
2018-08-31T07:07:06.579Z,40.90
2018-08-31T07:12:10.274Z,43.03
2018-08-31T07:17:14.248Z,44.00
2018-08-31T07:22:17.853Z,40.10
2018-08-31T07:27:21.559Z,38.17
2018-08-31T07:32:25.590Z,39.70
2018-08-31T07:37:29.200Z,40.60
2018-08-31T07:42:32.861Z,38.53
2018-08-31T07:47:36.528Z,38.50
2018-08-31T07:52:41.930Z,38.90
2018-08-31T07:57:45.608Z,37.80
2018-08-31T08:02:49.447Z,33.77
2018-08-31T08:07:53.319Z,33.57
2018-08-31T08:12:57.243Z,34.20
2018-08-31T08:18:00.883Z,32.57
2018-08-31T08:23:05.528Z,31.23
2018-08-31T08:28:09.241Z,31.87
2018-08-31T08:33:15.292Z,30.87
2018-08-31T08:38:19.579Z,34.03
2018-08-31T08:43:23.251Z,30.40
2018-08-31T08:48:27.005Z,32.63
2018-08-31T08:53:31.306Z,28.47
2018-08-31T08:58:35.436Z,26.77
2018-08-31T09:03:39.932Z,31.30
2018-08-31T09:08:43.710Z,33.40
2018-08-31T09:13:48.114Z,28.13
2018-08-31T09:18:52.533Z,25.93
2018-08-31T09:23:56.691Z,28.47
2018-08-31T09:29:00.489Z,26.50
2018-08-31T09:34:04.840Z,27.23
2018-08-31T09:39:09.600Z,28.73
2018-08-31T09:44:13.507Z,23.37
2018-08-31T09:49:17.268Z,23.03
2018-08-31T09:54:20.886Z,23.87
2018-08-31T09:59:25.472Z,21.67
2018-08-31T10:04:30.537Z,20.60
2018-08-31T10:09:36.293Z,22.90
2018-08-31T10:14:40.123Z,25.50
2018-08-31T10:19:44.929Z,23.20
2018-08-31T10:24:48.612Z,21.20
2018-08-31T10:29:52.295Z,25.10
2018-08-31T10:34:56.440Z,21.17
2018-08-31T10:40:00.916Z,26.53
2018-08-31T10:45:05.034Z,27.00
2018-08-31T10:50:09.443Z,23.40
2018-08-31T10:55:13.043Z,24.83
2018-08-31T11:00:16.752Z,26.30
2018-08-31T11:05:20.375Z,26.43
2018-08-31T11:10:24.011Z,28.63
2018-08-31T11:15:27.621Z,28.63
2018-08-31T11:20:31.934Z,26.37
2018-08-31T11:25:35.818Z,26.87
2018-08-31T11:30:39.647Z,27.27
2018-08-31T11:35:43.397Z,29.03
2018-08-31T11:40:47.162Z,27.97
2018-08-31T11:45:51.219Z,24.63
2018-08-31T11:50:55.575Z,26.70
2018-08-31T11:55:59.792Z,25.17
2018-08-31T12:01:05.365Z,27.43
2018-08-31T12:06:11.407Z,27.87
2018-08-31T12:11:17.996Z,28.77
2018-08-31T12:16:21.845Z,31.17
2018-08-31T12:21:25.646Z,27.60
2018-08-31T12:26:33.744Z,24.00
2018-08-31T12:31:37.725Z,28.80
2018-08-31T12:36:41.794Z,29.30
2018-08-31T12:42:04.755Z,29.00
2018-08-31T12:47:12.465Z,26.93
2018-08-31T12:52:16.527Z,22.93
2018-08-31T12:57:20.246Z,26.77
2018-08-31T13:02:24.464Z,27.67
2018-08-31T13:07:28.248Z,25.30
2018-08-31T13:12:32.829Z,24.40
2018-08-31T13:17:40.602Z,23.80
2018-08-31T13:22:45.330Z,19.27
2018-08-31T13:27:49.092Z,19.47
2018-08-31T13:32:53.309Z,19.77
2018-08-31T13:37:57.234Z,23.70
2018-08-31T13:43:00.950Z,19.67
2018-08-31T13:48:04.844Z,17.07
2018-08-31T13:53:08.773Z,18.93
2018-08-31T13:58:15.804Z,18.90
2018-08-31T14:03:20.272Z,18.13
2018-08-31T14:08:24.116Z,19.10
2018-08-31T14:13:28.915Z,19.87
2018-08-31T14:18:32.689Z,18.07
2018-08-31T14:23:36.323Z,17.33
2018-08-31T14:28:40.038Z,16.37
2018-08-31T14:33:44.435Z,17.50
2018-08-31T14:38:48.184Z,15.23
2018-08-31T14:43:53.379Z,14.50
2018-08-31T14:48:58.229Z,17.50
2018-08-31T14:54:02.042Z,17.50
2018-08-31T14:59:06.179Z,12.30
2018-08-31T15:04:09.876Z,15.30
2018-08-31T15:09:14.243Z,17.57
2018-08-31T15:14:18.682Z,17.37
2018-08-31T15:19:22.404Z,16.10
2018-08-31T15:24:26.560Z,16.00
2018-08-31T15:29:30.462Z,18.80
2018-08-31T15:34:34.380Z,19.40
2018-08-31T15:39:38.068Z,15.50
2018-08-31T15:44:41.959Z,16.57
2018-08-31T15:49:46.249Z,16.07
2018-08-31T15:54:50.006Z,16.57
2018-08-31T15:59:53.728Z,17.80
2018-08-31T16:04:57.455Z,16.00
2018-08-31T16:10:01.410Z,16.80
2018-08-31T16:15:06.677Z,15.83
2018-08-31T16:20:12.002Z,19.43
2018-08-31T16:25:16.432Z,18.60
2018-08-31T16:30:20.253Z,18.17
2018-08-31T16:35:24.185Z,16.20
2018-08-31T16:40:27.864Z,17.27
2018-08-31T16:45:31.716Z,18.47
2018-08-31T16:50:35.579Z,18.17
2018-08-31T16:55:39.299Z,14.77
2018-08-31T17:00:43.279Z,17.13
2018-08-31T17:05:47.163Z,20.07
2018-08-31T17:10:50.808Z,17.80
2018-08-31T17:15:54.845Z,19.50
2018-08-31T17:20:58.652Z,21.73
2018-08-31T17:26:02.665Z,20.37
2018-08-31T17:31:11.798Z,18.80
2018-08-31T17:36:20.733Z,23.33
2018-08-31T17:41:24.786Z,23.67
2018-08-31T17:46:29.383Z,24.10
2018-08-31T17:51:33.103Z,24.10
2018-08-31T17:56:36.954Z,27.17
2018-08-31T18:01:40.795Z,28.13
2018-08-31T18:06:46.238Z,26.53
2018-08-31T18:11:50.333Z,24.13
2018-08-31T18:16:54.094Z,25.70
2018-08-31T18:21:57.911Z,24.63
2018-08-31T18:27:01.620Z,25.80
2018-08-31T18:32:05.536Z,28.00
2018-08-31T18:37:09.872Z,24.40
2018-08-31T18:42:14.475Z,26.13
2018-08-31T18:47:18.866Z,27.57
2018-08-31T18:52:22.599Z,26.23
2018-08-31T18:57:26.346Z,26.20
2018-08-31T19:02:30.199Z,28.10
2018-08-31T19:07:34.064Z,26.10
2018-08-31T19:12:38.328Z,26.57
2018-08-31T19:17:41.974Z,24.27
2018-08-31T19:22:45.574Z,26.27
2018-08-31T19:27:49.308Z,26.83
2018-08-31T19:32:54.827Z,27.53
2018-08-31T19:37:58.570Z,22.83
2018-08-31T19:43:02.570Z,26.93
2018-08-31T19:48:08.152Z,23.63
2018-08-31T19:53:13.806Z,26.00
2018-08-31T19:58:17.465Z,25.17
2018-08-31T20:03:21.158Z,24.10
2018-08-31T20:08:27.813Z,24.83
2018-08-31T20:13:33.590Z,21.80
2018-08-31T20:18:37.339Z,22.57
2018-08-31T20:23:47.083Z,23.57
2018-08-31T20:28:51.202Z,26.17
2018-08-31T20:33:55.490Z,22.23
2018-08-31T20:38:59.482Z,23.37
2018-08-31T20:44:03.270Z,25.80
2018-08-31T20:49:07.719Z,24.30
2018-08-31T20:54:11.692Z,25.10
2018-08-31T20:59:16.362Z,25.87
2018-08-31T21:04:20.735Z,25.50
2018-08-31T21:09:25.836Z,28.80
2018-08-31T21:14:29.613Z,27.63
2018-08-31T21:19:34.352Z,29.80
2018-08-31T21:24:40.226Z,30.90
2018-08-31T21:29:43.997Z,31.37
2018-08-31T21:34:47.837Z,30.10
2018-08-31T21:39:51.646Z,31.70
2018-08-31T21:44:59.239Z,28.50
2018-08-31T21:50:04.453Z,31.23
2018-08-31T21:55:08.468Z,28.23
2018-08-31T22:00:15.402Z,29.93
2018-08-31T22:05:20.123Z,32.73
2018-08-31T22:10:24.571Z,28.97
2018-08-31T22:15:28.712Z,33.47
2018-08-31T22:20:32.431Z,32.83
2018-08-31T22:25:36.481Z,33.80
2018-08-31T22:30:40.172Z,32.63
2018-08-31T22:35:43.899Z,34.43
2018-08-31T22:40:47.539Z,33.50
2018-08-31T22:51:00.425Z,32.50
2018-08-31T22:56:04.286Z,33.13
2018-08-31T23:01:08.124Z,31.30
2018-08-31T23:06:11.845Z,32.10
2018-08-31T23:11:17.357Z,34.10
2018-08-31T23:16:21.190Z,29.97
2018-08-31T23:21:25.040Z,37.67
2018-08-31T23:26:28.775Z,36.10
2018-08-31T23:31:32.785Z,35.50
2018-08-31T23:36:36.578Z,32.93
2018-08-31T23:41:40.183Z,34.43
2018-08-31T23:46:44.127Z,35.30
2018-08-31T23:51:48.089Z,35.23
2018-08-31T23:56:52.292Z,32.03
